createdAt,value
2019-05-23T00:00:03.385Z,0
2019-05-23T00:05:03.412Z,0
2019-05-23T00:10:02.883Z,0
2019-05-23T00:15:03.405Z,0
2019-05-23T00:20:02.902Z,0
2019-05-23T00:25:03.372Z,0
2019-05-23T00:30:02.812Z,0
2019-05-23T00:35:03.308Z,0
2019-05-23T00:40:02.756Z,0
2019-05-23T00:45:03.187Z,0
2019-05-23T00:50:02.677Z,0
2019-05-23T00:55:03.133Z,0
2019-05-23T01:00:02.666Z,0
2019-05-23T01:05:03.192Z,0
2019-05-23T01:10:02.717Z,0
2019-05-23T01:15:03.281Z,0
2019-05-23T01:20:02.813Z,0
2019-05-23T01:25:03.336Z,0
2019-05-23T01:30:02.768Z,0
2019-05-23T01:35:03.400Z,0
2019-05-23T01:40:02.863Z,0
2019-05-23T01:45:02.520Z,0
2019-05-23T01:50:02.964Z,0
2019-05-23T01:55:03.434Z,0
2019-05-23T02:00:09.855Z,0
2019-05-23T02:05:02.998Z,0
2019-05-23T02:10:02.501Z,0
2019-05-23T02:15:03.006Z,0
2019-05-23T02:20:02.597Z,0
2019-05-23T02:25:03.046Z,0
2019-05-23T02:30:02.618Z,0
2019-05-23T02:35:03.323Z,0
2019-05-23T02:40:02.808Z,0
2019-05-23T02:45:03.357Z,0
2019-05-23T02:50:02.869Z,1
2019-05-23T02:55:03.343Z,3
2019-05-23T03:00:02.841Z,5
2019-05-23T03:05:03.295Z,16
2019-05-23T03:10:02.811Z,29
2019-05-23T03:15:03.392Z,35
2019-05-23T03:20:02.999Z,43
2019-05-23T03:25:02.544Z,56
2019-05-23T03:30:03.032Z,66
2019-05-23T03:35:02.578Z,91
2019-05-23T03:40:03.128Z,162
2019-05-23T03:45:02.627Z,291
2019-05-23T03:50:03.177Z,391
2019-05-23T03:55:02.703Z,457
2019-05-23T04:00:03.298Z,524
2019-05-23T04:05:02.777Z,601
2019-05-23T04:10:03.233Z,697
2019-05-23T04:15:02.788Z,768
2019-05-23T04:20:03.304Z,876
2019-05-23T04:25:02.933Z,928
2019-05-23T04:30:02.444Z,1000
2019-05-23T04:35:02.977Z,1000
2019-05-23T04:40:02.543Z,1000
2019-05-23T04:45:03.060Z,1000
2019-05-23T04:50:02.619Z,1000
2019-05-23T04:55:03.105Z,1000
2019-05-23T05:00:02.632Z,1000
2019-05-23T05:05:03.187Z,1000
2019-05-23T05:10:02.749Z,1000
2019-05-23T05:15:03.248Z,1000
2019-05-23T05:20:02.413Z,1000
2019-05-23T05:25:03.034Z,1000
2019-05-23T05:30:02.518Z,1000
2019-05-23T05:35:03.069Z,1000
2019-05-23T05:40:02.599Z,1000
2019-05-23T05:45:03.136Z,2000
2019-05-23T05:50:02.703Z,2000
2019-05-23T05:55:03.239Z,2000
2019-05-23T06:00:02.731Z,2000
2019-05-23T06:05:03.306Z,2000
2019-05-23T06:10:02.890Z,2000
2019-05-23T06:15:03.812Z,2000
2019-05-23T06:20:02.520Z,2000
2019-05-23T06:25:04.049Z,2000
2019-05-23T06:30:03.031Z,2000
2019-05-23T06:35:02.531Z,3000
2019-05-23T06:40:03.105Z,3000
2019-05-23T06:45:02.549Z,3000
2019-05-23T06:50:03.062Z,3000
2019-05-23T06:55:02.529Z,3000
2019-05-23T07:00:03.181Z,3000
2019-05-23T07:05:02.654Z,3000
2019-05-23T07:10:03.192Z,3000
2019-05-23T07:15:03.050Z,3000
2019-05-23T07:20:02.590Z,3000
2019-05-23T07:25:03.087Z,3000
2019-05-23T07:30:02.542Z,3000
2019-05-23T07:35:03.065Z,3000
2019-05-23T07:40:02.557Z,4000
2019-05-23T07:45:03.156Z,4000
2019-05-23T07:50:02.675Z,4000
2019-05-23T07:55:03.195Z,5000
2019-05-23T08:00:02.640Z,30000
2019-05-23T08:05:03.164Z,33000
2019-05-23T08:10:02.627Z,34000
2019-05-23T08:15:03.214Z,34000
2019-05-23T08:20:02.841Z,34000
2019-05-23T08:25:03.513Z,29000
2019-05-23T08:30:03.067Z,35000
2019-05-23T08:35:02.562Z,35000
2019-05-23T08:40:03.079Z,35000
2019-05-23T08:45:01.733Z,35000
2019-05-23T08:50:02.558Z,36000
2019-05-23T08:55:03.218Z,37000
2019-05-23T09:00:02.713Z,37000
2019-05-23T09:05:05.988Z,37000
2019-05-23T09:10:03.067Z,36000
2019-05-23T09:15:02.521Z,35000
2019-05-23T09:20:02.978Z,34000
2019-05-23T09:25:02.561Z,34000
2019-05-23T09:30:03.047Z,38000
2019-05-23T09:35:19.153Z,37000
2019-05-23T09:40:03.280Z,38000
2019-05-23T09:45:02.111Z,37000
2019-05-23T09:50:02.633Z,36000
2019-05-23T09:55:03.198Z,35000
2019-05-23T10:00:02.732Z,32000
2019-05-23T10:05:03.244Z,39000
2019-05-23T10:10:02.747Z,39000
2019-05-23T10:15:03.299Z,33000
2019-05-23T10:20:02.812Z,41000
2019-05-23T10:25:03.266Z,36000
2019-05-23T10:30:02.778Z,35000
2019-05-23T10:35:03.478Z,35000
2019-05-23T10:40:02.958Z,41000
2019-05-23T10:45:03.605Z,35000
2019-05-23T10:50:07.909Z,42000
2019-05-23T10:55:02.942Z,39000
2019-05-23T11:00:03.484Z,39000
2019-05-23T11:05:12.138Z,33000
2019-05-23T11:10:03.435Z,28000
2019-05-23T11:15:03.072Z,33000
2019-05-23T11:20:02.601Z,33000
2019-05-23T11:25:03.287Z,35000
2019-05-23T11:30:02.847Z,30000
2019-05-23T11:35:03.511Z,31000
2019-05-23T11:40:03.231Z,31000
2019-05-23T11:45:02.691Z,30000
2019-05-23T11:50:03.204Z,22000
2019-05-23T11:55:02.707Z,13000
2019-05-23T12:00:03.305Z,34000
2019-05-23T12:05:02.774Z,36000
2019-05-23T12:10:03.322Z,33000
2019-05-23T12:15:03.254Z,31000
2019-05-23T12:20:02.944Z,32000
2019-05-23T12:25:20.242Z,21000
2019-05-23T12:30:02.878Z,21000
2019-05-23T12:35:11.199Z,27000
2019-05-23T12:40:03.422Z,28000
2019-05-23T12:45:02.949Z,10000
2019-05-23T12:50:03.496Z,11000
2019-05-23T12:55:03.039Z,10000
2019-05-23T13:00:02.521Z,10000
2019-05-23T13:05:02.978Z,12000
2019-05-23T13:10:02.498Z,24000
2019-05-23T13:15:03.029Z,9000
2019-05-23T13:20:02.575Z,8000
2019-05-23T13:25:03.113Z,24000
2019-05-23T13:30:02.666Z,26000
2019-05-23T13:35:03.131Z,23000
2019-05-23T13:40:02.714Z,22000
2019-05-23T13:45:03.230Z,13000
2019-05-23T13:50:02.692Z,20000
2019-05-23T13:55:03.288Z,23000
2019-05-23T14:00:02.812Z,26000
2019-05-23T14:05:03.267Z,28000
2019-05-23T14:10:02.871Z,24000
2019-05-23T14:15:03.418Z,22000
2019-05-23T14:20:03.083Z,25000
2019-05-23T14:25:02.728Z,22000
2019-05-23T14:30:11.242Z,20000
2019-05-23T14:35:03.087Z,18000
2019-05-23T14:40:02.574Z,16000
2019-05-23T14:45:03.141Z,19000
2019-05-23T14:50:02.628Z,17000
2019-05-23T14:55:03.175Z,9000
2019-05-23T15:00:02.689Z,14000
2019-05-23T15:05:03.233Z,18000
2019-05-23T15:10:02.758Z,7000
2019-05-23T15:15:03.309Z,7000
2019-05-23T15:20:02.811Z,14000
2019-05-23T15:25:03.265Z,15000
2019-05-23T15:30:02.817Z,17000
2019-05-23T15:35:03.335Z,15000
2019-05-23T15:40:02.772Z,12000
2019-05-23T15:45:03.319Z,11000
2019-05-23T15:50:06.265Z,12000
2019-05-23T15:55:02.773Z,14000
2019-05-23T16:00:03.216Z,12000
2019-05-23T16:05:02.806Z,12000
2019-05-23T16:10:03.430Z,11000
2019-05-23T16:15:03.082Z,11000
2019-05-23T16:20:02.531Z,9000
2019-05-23T16:25:03.037Z,8000
2019-05-23T16:30:02.548Z,7000
2019-05-23T16:35:03.111Z,6000
2019-05-23T16:40:02.624Z,6000
2019-05-23T16:45:03.205Z,6000
2019-05-23T16:50:02.701Z,11000
2019-05-23T16:55:03.354Z,8000
2019-05-23T17:00:02.864Z,7000
2019-05-23T17:05:09.767Z,13000
2019-05-23T17:10:08.814Z,8000
2019-05-23T17:15:03.115Z,11000
2019-05-23T17:20:18.165Z,7000
2019-05-23T17:25:02.119Z,7000
2019-05-23T17:30:02.651Z,7000
2019-05-23T17:35:03.335Z,7000
2019-05-23T17:40:02.798Z,4000
2019-05-23T17:45:03.304Z,4000
2019-05-23T17:50:02.074Z,5000
2019-05-23T17:55:02.594Z,5000
2019-05-23T18:00:03.257Z,5000
2019-05-23T18:05:02.795Z,4000
2019-05-23T18:10:03.299Z,2000
2019-05-23T18:15:02.853Z,2000
2019-05-23T18:20:03.396Z,2000
2019-05-23T18:25:02.854Z,2000
2019-05-23T18:30:03.359Z,2000
2019-05-23T18:35:02.976Z,1000
2019-05-23T18:40:02.503Z,983
2019-05-23T18:45:03.149Z,1000
2019-05-23T18:50:02.666Z,990
2019-05-23T18:55:03.213Z,848
2019-05-23T19:00:02.854Z,753
2019-05-23T19:05:03.419Z,505
2019-05-23T19:10:02.950Z,401
2019-05-23T19:15:03.456Z,289
2019-05-23T19:20:02.997Z,158
2019-05-23T19:25:02.500Z,96
2019-05-23T19:30:03.052Z,70
2019-05-23T19:35:02.560Z,66
2019-05-23T19:40:03.110Z,57
2019-05-23T19:45:02.632Z,44
2019-05-23T19:50:03.172Z,30
2019-05-23T19:55:02.694Z,18
2019-05-23T20:00:03.251Z,8
2019-05-23T20:05:02.719Z,4
2019-05-23T20:10:03.202Z,2
2019-05-23T20:15:02.729Z,1
2019-05-23T20:20:03.193Z,0
2019-05-23T20:25:02.691Z,0
2019-05-23T20:30:03.191Z,0
2019-05-23T20:35:02.655Z,0
2019-05-23T20:40:03.226Z,0
2019-05-23T20:45:03.077Z,0
2019-05-23T20:50:02.789Z,0
2019-05-23T20:55:03.331Z,0
2019-05-23T21:00:02.818Z,0
2019-05-23T21:05:03.358Z,0
2019-05-23T21:10:02.883Z,0
2019-05-23T21:15:03.366Z,0
2019-05-23T21:20:02.864Z,0
2019-05-23T21:25:03.387Z,0
2019-05-23T21:30:02.912Z,0
2019-05-23T21:35:03.368Z,0
2019-05-23T21:40:02.985Z,0
2019-05-23T21:45:02.562Z,0
2019-05-23T21:50:03.046Z,0
2019-05-23T21:55:02.577Z,0
2019-05-23T22:00:03.116Z,0
2019-05-23T22:05:02.670Z,0
2019-05-23T22:10:03.206Z,0
2019-05-23T22:15:02.694Z,0
2019-05-23T22:20:03.265Z,0
2019-05-23T22:25:02.762Z,0
2019-05-23T22:30:03.239Z,0
2019-05-23T22:35:02.685Z,0
2019-05-23T22:40:03.205Z,0
2019-05-23T22:45:02.695Z,0
2019-05-23T22:50:03.250Z,0
2019-05-23T22:55:02.767Z,0
2019-05-23T23:00:07.844Z,0
2019-05-23T23:05:02.529Z,0
2019-05-23T23:10:03.079Z,0
2019-05-23T23:15:02.591Z,0
2019-05-23T23:20:03.139Z,0
2019-05-23T23:25:02.663Z,0
2019-05-23T23:30:03.209Z,0
2019-05-23T23:35:02.725Z,0
2019-05-23T23:40:03.419Z,0
2019-05-23T23:45:02.989Z,0
2019-05-23T23:50:02.529Z,0
2019-05-23T23:55:03.073Z,0
